createdAt,value
2022-10-16T00:01:50.510Z,82.77
2022-10-16T00:04:19.136Z,83.24
2022-10-16T00:06:47.795Z,83.10
2022-10-16T00:09:16.365Z,83.17
2022-10-16T00:11:46.435Z,83.54
2022-10-16T00:14:17.001Z,83.53
2022-10-16T00:16:45.973Z,83.51
2022-10-16T00:19:14.642Z,83.11
2022-10-16T00:21:43.538Z,83.14
2022-10-16T00:24:22.255Z,83.61
2022-10-16T00:26:53.392Z,83.02
2022-10-16T00:29:22.713Z,83.17
2022-10-16T00:31:51.139Z,83.79
2022-10-16T00:34:19.859Z,83.19
2022-10-16T00:36:48.415Z,83.59
2022-10-16T00:39:17.104Z,83.84
2022-10-16T00:41:45.743Z,83.49
2022-10-16T00:44:35.381Z,83.43
2022-10-16T00:47:05.385Z,83.65
2022-10-16T00:49:33.997Z,83.66
2022-10-16T00:52:02.636Z,83.47
2022-10-16T00:54:33.421Z,83.45
2022-10-16T00:57:04.692Z,83.53
2022-10-16T00:59:35.945Z,83.68
2022-10-16T01:02:07.512Z,84.22
2022-10-16T01:04:41.676Z,84.50
2022-10-16T01:07:17.594Z,84.41
2022-10-16T01:10:00.457Z,84.77
2022-10-16T01:12:45.426Z,84.60
2022-10-16T01:15:24.763Z,85.05
2022-10-16T01:18:02.645Z,85.30
2022-10-16T01:20:39.315Z,85.47
2022-10-16T01:23:17.940Z,85.37
2022-10-16T01:26:13.138Z,85.08
2022-10-16T01:28:48.889Z,85.27
2022-10-16T01:31:21.225Z,85.12
2022-10-16T01:33:58.655Z,85.33
2022-10-16T01:36:33.569Z,85.38
2022-10-16T01:39:04.281Z,85.28
2022-10-16T01:41:37.450Z,84.99
2022-10-16T01:44:11.096Z,85.22
2022-10-16T01:46:44.212Z,84.96
2022-10-16T01:49:14.582Z,85.00
2022-10-16T01:51:46.802Z,85.06
2022-10-16T01:54:18.873Z,84.85
2022-10-16T01:56:51.196Z,85.08
2022-10-16T01:59:26.517Z,85.03
2022-10-16T02:01:58.631Z,85.12
2022-10-16T02:04:33.685Z,84.98
2022-10-16T02:07:03.443Z,84.85
2022-10-16T02:09:33.266Z,85.12
2022-10-16T02:12:08.944Z,85.39
2022-10-16T02:14:41.273Z,85.12
2022-10-16T02:17:15.113Z,85.04
2022-10-16T02:19:45.336Z,84.95
2022-10-16T02:22:20.723Z,85.29
2022-10-16T02:24:54.867Z,85.32
2022-10-16T02:27:30.044Z,85.07
2022-10-16T02:30:09.155Z,85.24
2022-10-16T02:32:42.226Z,85.61
2022-10-16T02:35:12.555Z,85.26
2022-10-16T02:37:42.934Z,85.01
2022-10-16T02:40:13.913Z,85.41
2022-10-16T02:42:43.087Z,85.38
2022-10-16T02:45:13.924Z,85.37
2022-10-16T02:47:42.727Z,85.25
2022-10-16T02:50:11.444Z,85.52
2022-10-16T02:52:40.234Z,85.52
2022-10-16T02:55:09.712Z,85.43
2022-10-16T02:57:41.614Z,85.19
2022-10-16T03:00:15.349Z,85.27
2022-10-16T03:02:44.122Z,85.41
2022-10-16T03:05:12.855Z,85.21
2022-10-16T03:07:41.613Z,85.07
2022-10-16T03:10:10.898Z,85.56
2022-10-16T03:12:39.576Z,84.86
2022-10-16T03:15:09.134Z,85.11
2022-10-16T03:17:38.904Z,84.66
2022-10-16T03:20:07.695Z,85.15
2022-10-16T03:22:36.313Z,85.20
2022-10-16T03:25:05.232Z,85.06
2022-10-16T03:27:33.890Z,85.04
2022-10-16T03:30:02.477Z,85.30
2022-10-16T03:32:31.995Z,85.42
2022-10-16T03:35:02.123Z,84.94
2022-10-16T03:37:30.832Z,84.89
2022-10-16T03:40:00.555Z,85.25
2022-10-16T03:42:29.055Z,85.47
2022-10-16T03:44:57.688Z,85.06
2022-10-16T03:47:26.575Z,85.14
2022-10-16T03:49:55.386Z,84.85
2022-10-16T03:52:25.523Z,85.15
2022-10-16T03:54:54.414Z,85.34
2022-10-16T03:57:23.170Z,85.49
2022-10-16T03:59:52.051Z,85.42
2022-10-16T04:02:20.621Z,85.34
2022-10-16T04:04:49.257Z,85.54
2022-10-16T04:07:17.782Z,85.17
2022-10-16T04:09:47.834Z,85.72
2022-10-16T04:12:16.467Z,85.26
2022-10-16T04:14:45.523Z,85.55
2022-10-16T04:17:14.363Z,85.19
2022-10-16T04:19:42.961Z,85.46
2022-10-16T04:22:12.042Z,85.16
2022-10-16T04:24:40.976Z,85.07
2022-10-16T04:27:11.234Z,85.49
2022-10-16T04:29:39.706Z,85.38
2022-10-16T04:32:10.354Z,85.02
2022-10-16T04:34:41.654Z,85.39
2022-10-16T04:37:10.376Z,85.13
2022-10-16T04:39:38.878Z,85.63
2022-10-16T04:42:07.793Z,85.24
2022-10-16T04:44:38.992Z,85.67
2022-10-16T04:47:07.657Z,85.38
2022-10-16T04:49:36.348Z,85.34
2022-10-16T04:52:05.494Z,85.54
2022-10-16T04:54:34.143Z,85.66
2022-10-16T04:57:02.902Z,85.68
2022-10-16T04:59:31.451Z,85.65
2022-10-16T05:02:01.676Z,85.45
2022-10-16T05:04:30.293Z,85.53
2022-10-16T05:06:58.791Z,85.44
2022-10-16T05:09:27.620Z,85.47
2022-10-16T05:11:56.163Z,85.26
2022-10-16T05:14:24.792Z,85.23
2022-10-16T05:16:53.574Z,85.42
2022-10-16T05:19:27.190Z,85.16
2022-10-16T05:21:56.694Z,85.46
2022-10-16T05:24:25.422Z,85.24
2022-10-16T05:26:54.002Z,85.28
2022-10-16T05:29:22.713Z,85.79
2022-10-16T05:31:54.022Z,85.08
2022-10-16T05:34:24.974Z,85.15
2022-10-16T05:36:53.946Z,85.35
2022-10-16T05:39:22.715Z,85.39
2022-10-16T05:41:53.511Z,85.30
2022-10-16T05:44:22.125Z,85.41
2022-10-16T05:46:50.776Z,85.60
2022-10-16T05:49:19.737Z,85.62
2022-10-16T05:51:49.734Z,85.75
2022-10-16T05:54:18.826Z,85.85
2022-10-16T05:56:47.552Z,85.60
2022-10-16T05:59:16.594Z,85.45
2022-10-16T06:01:45.035Z,85.72
2022-10-16T06:04:13.656Z,85.67
2022-10-16T06:06:42.224Z,85.59
2022-10-16T06:09:12.974Z,85.83
2022-10-16T06:11:42.201Z,86.03
2022-10-16T06:14:11.303Z,85.31
2022-10-16T06:16:40.179Z,85.24
2022-10-16T06:19:09.623Z,85.63
2022-10-16T06:21:38.174Z,84.94
2022-10-16T06:24:06.794Z,85.15
2022-10-16T06:26:36.760Z,84.95
2022-10-16T06:29:05.428Z,84.65
2022-10-16T06:31:34.635Z,84.75
2022-10-16T06:34:06.021Z,84.05
2022-10-16T06:36:34.621Z,84.17
2022-10-16T06:39:03.107Z,83.96
2022-10-16T06:41:32.138Z,84.10
2022-10-16T06:44:09.588Z,84.25
2022-10-16T06:46:38.322Z,83.75
2022-10-16T06:49:06.919Z,83.58
2022-10-16T06:51:40.458Z,83.53
2022-10-16T06:54:11.963Z,83.91
2022-10-16T06:56:40.605Z,83.93
2022-10-16T06:59:10.638Z,83.74
2022-10-16T07:01:39.661Z,83.67
2022-10-16T07:04:08.138Z,83.54
2022-10-16T07:12:56.805Z,84.10
2022-10-16T07:15:27.522Z,83.97
2022-10-16T07:17:56.226Z,84.04
2022-10-16T07:20:24.919Z,83.56
2022-10-16T07:22:53.918Z,83.32
2022-10-16T07:25:22.365Z,83.66
2022-10-16T07:27:50.908Z,83.23
2022-10-16T07:30:19.449Z,82.77
2022-10-16T07:32:49.539Z,82.85
2022-10-16T07:35:18.621Z,82.21
2022-10-16T07:37:47.762Z,82.45
2022-10-16T07:40:16.726Z,82.05
2022-10-16T07:42:45.847Z,81.95
2022-10-16T07:45:14.366Z,81.56
2022-10-16T07:47:42.989Z,80.98
2022-10-16T07:50:12.993Z,81.02
2022-10-16T07:52:41.771Z,80.58
2022-10-16T07:55:10.994Z,80.24
2022-10-16T07:57:39.667Z,80.30
2022-10-16T08:00:14.525Z,79.79
2022-10-16T08:02:44.055Z,79.66
2022-10-16T08:05:14.057Z,79.32
2022-10-16T08:07:42.790Z,79.32
2022-10-16T08:10:19.304Z,79.39
2022-10-16T08:12:47.864Z,78.96
2022-10-16T08:15:16.529Z,78.74
2022-10-16T08:17:45.127Z,78.09
2022-10-16T08:20:15.033Z,77.25
2022-10-16T08:22:43.467Z,77.03
2022-10-16T08:25:12.109Z,76.44
2022-10-16T08:27:40.707Z,76.01
2022-10-16T08:30:11.140Z,75.42
2022-10-16T08:32:40.187Z,75.43
2022-10-16T08:35:10.285Z,75.04
2022-10-16T08:37:41.114Z,75.40
2022-10-16T08:40:20.429Z,75.57
2022-10-16T08:43:11.153Z,74.94
2022-10-16T08:45:55.930Z,74.01
2022-10-16T08:48:32.211Z,73.04
2022-10-16T08:51:00.888Z,72.32
2022-10-16T08:53:36.479Z,72.52
2022-10-16T08:56:05.266Z,72.31
2022-10-16T08:58:33.867Z,71.50
2022-10-16T09:01:04.657Z,71.25
2022-10-16T09:03:50.640Z,71.07
2022-10-16T09:06:41.839Z,71.15
2022-10-16T09:09:34.545Z,71.81
2022-10-16T09:12:10.328Z,72.05
2022-10-16T09:15:00.009Z,71.65
2022-10-16T09:17:38.857Z,71.21
2022-10-16T09:20:28.040Z,71.01
2022-10-16T09:23:17.279Z,70.69
2022-10-16T09:25:50.181Z,70.47
2022-10-16T09:28:21.089Z,70.40
2022-10-16T09:30:50.974Z,69.62
2022-10-16T09:33:20.620Z,69.42
2022-10-16T09:35:51.477Z,69.30
2022-10-16T09:38:29.754Z,69.23
2022-10-16T09:41:03.674Z,69.08
2022-10-16T09:43:41.313Z,67.88
2022-10-16T09:46:23.717Z,66.58
2022-10-16T09:48:54.639Z,65.67
2022-10-16T09:51:26.502Z,64.56
2022-10-16T09:53:59.578Z,63.88
2022-10-16T09:56:31.170Z,63.04
2022-10-16T09:59:01.770Z,62.72
2022-10-16T10:01:38.821Z,62.80
2022-10-16T10:04:08.436Z,62.75
2022-10-16T10:06:39.129Z,62.53
2022-10-16T10:09:18.106Z,62.30
2022-10-16T10:11:51.757Z,62.24
2022-10-16T10:14:29.863Z,62.19
2022-10-16T10:17:14.003Z,62.44
2022-10-16T10:19:47.323Z,62.88
2022-10-16T10:22:38.003Z,63.10
2022-10-16T10:25:21.717Z,63.03
2022-10-16T10:28:06.282Z,63.85
2022-10-16T10:30:43.124Z,63.26
2022-10-16T10:33:23.914Z,62.66
2022-10-16T10:35:59.563Z,62.32
2022-10-16T10:38:38.775Z,62.49
2022-10-16T10:41:27.908Z,62.47
2022-10-16T10:44:08.690Z,62.50
2022-10-16T10:46:45.441Z,61.67
2022-10-16T10:49:37.801Z,61.18
2022-10-16T10:52:21.981Z,61.92
2022-10-16T10:54:58.176Z,61.77
2022-10-16T11:00:23.973Z,61.95
2022-10-16T11:03:01.636Z,61.20
2022-10-16T11:05:44.466Z,61.38
2022-10-16T11:08:19.824Z,61.08
2022-10-16T11:10:54.733Z,60.97
2022-10-16T11:13:37.001Z,60.66
2022-10-16T11:16:20.620Z,60.96
2022-10-16T11:18:58.122Z,60.96
2022-10-16T11:21:31.266Z,60.89
2022-10-16T11:24:07.195Z,60.71
2022-10-16T11:26:41.174Z,60.16
2022-10-16T11:29:18.411Z,59.63
2022-10-16T11:31:52.915Z,59.39
2022-10-16T11:34:34.224Z,59.23
2022-10-16T11:37:13.042Z,59.10
2022-10-16T11:39:43.477Z,60.03
2022-10-16T11:42:16.088Z,59.69
2022-10-16T11:45:03.623Z,60.08
2022-10-16T11:47:58.212Z,59.68
2022-10-16T11:50:34.009Z,59.16
2022-10-16T11:53:12.094Z,58.66
2022-10-16T11:55:46.204Z,58.32
2022-10-16T11:58:25.291Z,57.67
2022-10-16T12:01:02.695Z,56.69
2022-10-16T12:03:43.450Z,55.88
2022-10-16T12:06:27.686Z,55.14
2022-10-16T12:08:57.890Z,54.32
2022-10-16T12:11:35.584Z,53.89
2022-10-16T12:14:23.353Z,53.42
2022-10-16T12:16:58.044Z,53.14
2022-10-16T12:19:30.414Z,53.50
2022-10-16T12:22:01.944Z,53.73
2022-10-16T12:24:35.978Z,53.55
2022-10-16T12:27:06.466Z,53.63
2022-10-16T12:29:38.635Z,53.65
2022-10-16T12:32:41.982Z,53.25
2022-10-16T12:35:24.305Z,52.87
2022-10-16T12:37:53.775Z,52.91
2022-10-16T12:40:32.355Z,52.83
2022-10-16T12:43:01.426Z,52.80
2022-10-16T12:45:33.380Z,52.00
2022-10-16T12:48:04.668Z,51.71
2022-10-16T12:50:37.807Z,51.80
2022-10-16T12:53:20.386Z,52.03
2022-10-16T12:56:00.480Z,52.61
2022-10-16T12:58:55.472Z,52.01
2022-10-16T13:01:35.852Z,51.59
2022-10-16T13:04:23.162Z,51.99
2022-10-16T13:07:01.392Z,51.47
2022-10-16T13:09:46.162Z,51.76
2022-10-16T13:12:33.984Z,52.15
2022-10-16T13:15:19.391Z,51.91
2022-10-16T13:17:57.250Z,51.70
2022-10-16T13:20:33.431Z,51.25
2022-10-16T13:23:16.471Z,52.06
2022-10-16T13:26:01.225Z,52.26
2022-10-16T13:28:32.708Z,52.43
2022-10-16T13:31:03.626Z,52.97
2022-10-16T13:33:37.515Z,53.29
2022-10-16T13:36:07.906Z,53.56
2022-10-16T13:38:39.182Z,53.58
2022-10-16T13:41:17.584Z,53.89
2022-10-16T13:43:49.203Z,53.88
2022-10-16T13:46:19.385Z,54.52
2022-10-16T13:48:59.702Z,54.67
2022-10-16T13:51:29.072Z,55.09
2022-10-16T13:54:00.050Z,55.68
2022-10-16T13:56:30.867Z,55.51
2022-10-16T13:59:03.880Z,55.80
2022-10-16T14:01:35.772Z,56.57
2022-10-16T14:04:08.142Z,56.47
2022-10-16T14:06:38.666Z,56.09
2022-10-16T14:09:16.403Z,56.16
2022-10-16T14:11:50.502Z,55.73
2022-10-16T14:14:19.793Z,55.96
2022-10-16T14:16:50.318Z,55.84
2022-10-16T14:19:23.122Z,55.90
2022-10-16T14:21:53.018Z,55.89
2022-10-16T14:24:33.308Z,56.11
2022-10-16T14:27:02.876Z,57.36
2022-10-16T14:29:33.517Z,58.82
2022-10-16T14:32:04.234Z,58.37
2022-10-16T14:34:34.934Z,57.69
2022-10-16T14:37:10.955Z,57.78
2022-10-16T14:39:42.272Z,57.59
2022-10-16T14:42:18.904Z,57.52
2022-10-16T14:44:49.010Z,57.93
2022-10-16T14:47:23.849Z,58.26
2022-10-16T14:49:52.780Z,59.78
2022-10-16T14:52:21.308Z,61.16
2022-10-16T14:54:56.063Z,61.64
2022-10-16T14:57:29.608Z,60.85
2022-10-16T15:00:00.135Z,60.37
2022-10-16T15:02:32.553Z,59.85
2022-10-16T15:05:13.746Z,59.98
2022-10-16T15:07:42.272Z,60.07
2022-10-16T15:10:12.372Z,60.21
2022-10-16T15:12:41.709Z,60.39
2022-10-16T15:15:33.461Z,60.65
2022-10-16T15:18:03.974Z,60.79
2022-10-16T15:20:35.035Z,60.83
2022-10-16T15:23:04.906Z,60.59
2022-10-16T15:25:41.074Z,60.68
2022-10-16T15:28:10.517Z,60.90
2022-10-16T15:30:39.875Z,61.93
2022-10-16T15:33:14.549Z,62.73
2022-10-16T15:35:43.337Z,62.79
2022-10-16T15:38:15.128Z,63.11
2022-10-16T15:40:45.068Z,62.74
2022-10-16T15:43:13.676Z,62.27
2022-10-16T15:45:42.244Z,61.27
2022-10-16T15:48:13.094Z,61.03
2022-10-16T15:53:13.302Z,62.24
2022-10-16T15:55:41.825Z,63.49
2022-10-16T15:58:12.716Z,64.72
2022-10-16T16:00:41.458Z,65.18
2022-10-16T16:03:09.884Z,65.93
2022-10-16T16:05:45.657Z,66.69
2022-10-16T16:08:15.286Z,67.20
2022-10-16T16:10:43.742Z,67.56
2022-10-16T16:13:14.124Z,68.24
2022-10-16T16:15:42.912Z,68.51
2022-10-16T16:18:11.786Z,68.76
2022-10-16T16:20:40.975Z,69.21
2022-10-16T16:23:09.646Z,69.64
2022-10-16T16:25:38.214Z,69.70
2022-10-16T16:28:08.325Z,70.17
2022-10-16T16:30:38.315Z,70.50
2022-10-16T16:33:06.866Z,71.08
2022-10-16T16:35:35.274Z,71.13
2022-10-16T16:38:03.778Z,71.52
2022-10-16T16:40:32.986Z,71.99
2022-10-16T16:43:03.722Z,72.50
2022-10-16T16:45:32.315Z,73.09
2022-10-16T16:48:02.157Z,72.85
2022-10-16T16:50:30.916Z,73.13
2022-10-16T16:52:59.495Z,73.69
2022-10-16T16:55:28.085Z,73.47
2022-10-16T16:57:57.957Z,73.64
2022-10-16T17:00:26.542Z,73.95
2022-10-16T17:02:55.204Z,74.50
2022-10-16T17:05:25.385Z,73.93
2022-10-16T17:07:54.027Z,74.40
2022-10-16T17:10:22.475Z,74.20
2022-10-16T17:12:51.454Z,74.40
2022-10-16T17:15:19.968Z,74.96
2022-10-16T17:17:48.473Z,74.96
2022-10-16T17:20:17.167Z,75.10
2022-10-16T17:22:50.426Z,75.26
2022-10-16T17:25:19.104Z,75.56
2022-10-16T17:27:47.640Z,75.90
2022-10-16T17:30:16.325Z,75.96
2022-10-16T17:32:44.866Z,76.46
2022-10-16T17:35:13.395Z,76.70
2022-10-16T17:37:42.264Z,76.69
2022-10-16T17:42:43.308Z,76.71
2022-10-16T17:45:13.855Z,76.68
2022-10-16T17:47:43.066Z,77.02
2022-10-16T17:50:14.847Z,77.00
2022-10-16T17:52:44.619Z,77.34
2022-10-16T17:55:14.927Z,77.66
2022-10-16T17:57:43.560Z,77.62
2022-10-16T18:00:13.231Z,77.70
2022-10-16T18:02:42.745Z,77.70
2022-10-16T18:05:11.717Z,77.62
2022-10-16T18:10:13.534Z,77.64
2022-10-16T18:12:44.064Z,77.40
2022-10-16T18:15:12.994Z,77.51
2022-10-16T18:17:41.510Z,77.52
2022-10-16T18:20:10.966Z,77.26
2022-10-16T18:22:39.598Z,77.67
2022-10-16T18:25:08.972Z,77.58
2022-10-16T18:27:37.531Z,77.88
2022-10-16T18:30:08.550Z,77.94
2022-10-16T18:32:37.127Z,77.63
2022-10-16T18:35:06.149Z,78.05
2022-10-16T18:37:37.207Z,77.76
2022-10-16T18:40:06.438Z,77.95
2022-10-16T18:42:35.139Z,77.66
2022-10-16T18:45:03.698Z,77.75
2022-10-16T18:47:33.690Z,78.36
2022-10-16T18:50:02.337Z,78.05
2022-10-16T18:52:31.787Z,78.35
2022-10-16T18:55:01.136Z,78.58
2022-10-16T18:57:31.256Z,78.63
2022-10-16T19:00:01.117Z,78.47
2022-10-16T19:02:29.637Z,78.37
2022-10-16T19:05:02.608Z,78.34
2022-10-16T19:07:34.015Z,78.63
2022-10-16T19:10:02.597Z,78.91
2022-10-16T19:12:31.117Z,79.13
2022-10-16T19:14:59.793Z,79.10
2022-10-16T19:17:28.486Z,79.10
2022-10-16T19:19:57.267Z,79.20
2022-10-16T19:22:51.082Z,79.38
2022-10-16T19:25:22.719Z,79.35
2022-10-16T19:27:52.390Z,79.70
2022-10-16T19:30:20.846Z,79.72
2022-10-16T19:32:49.749Z,79.25
2022-10-16T19:35:18.605Z,79.77
2022-10-16T19:37:51.518Z,79.62
2022-10-16T19:40:20.248Z,79.59
2022-10-16T19:42:49.290Z,79.79
2022-10-16T19:45:18.048Z,79.44
2022-10-16T19:47:46.759Z,79.50
2022-10-16T19:50:19.155Z,79.56
2022-10-16T19:52:51.617Z,79.48
2022-10-16T19:55:20.627Z,79.73
2022-10-16T19:57:49.685Z,79.70
2022-10-16T20:00:18.976Z,79.77
2022-10-16T20:02:48.385Z,79.63
2022-10-16T20:05:17.066Z,79.78
2022-10-16T20:07:45.909Z,79.88
2022-10-16T20:10:15.947Z,79.50
2022-10-16T20:12:44.474Z,79.60
2022-10-16T20:15:12.998Z,79.81
2022-10-16T20:17:41.725Z,79.97
2022-10-16T20:20:10.967Z,79.78
2022-10-16T20:22:39.789Z,80.26
2022-10-16T20:25:10.161Z,80.23
2022-10-16T20:27:40.359Z,80.17
2022-10-16T20:30:09.988Z,80.00
2022-10-16T20:32:38.697Z,80.30
2022-10-16T20:35:08.269Z,80.17
2022-10-16T20:37:36.699Z,80.10
2022-10-16T20:40:06.055Z,80.45
2022-10-16T20:42:34.797Z,80.59
2022-10-16T20:45:05.260Z,80.04
2022-10-16T20:47:33.979Z,80.64
2022-10-16T20:50:02.568Z,80.42
2022-10-16T20:52:34.621Z,80.97
2022-10-16T20:55:04.877Z,81.02
2022-10-16T20:57:33.632Z,80.94
2022-10-16T21:00:02.237Z,80.83
2022-10-16T21:02:32.628Z,80.91
2022-10-16T21:05:01.338Z,81.00
2022-10-16T21:07:30.229Z,80.73
2022-10-16T21:10:00.121Z,81.22
2022-10-16T21:12:29.010Z,81.31
2022-10-16T21:15:13.909Z,80.79
2022-10-16T21:17:45.348Z,80.85
2022-10-16T21:20:13.888Z,81.12
2022-10-16T21:22:42.349Z,81.28
2022-10-16T21:25:11.307Z,81.14
2022-10-16T21:27:40.626Z,81.19
2022-10-16T21:30:11.322Z,81.12
2022-10-16T21:32:40.676Z,81.04
2022-10-16T21:35:10.967Z,81.43
2022-10-16T21:37:39.879Z,81.32
2022-10-16T21:40:09.578Z,81.27
2022-10-16T21:42:38.166Z,81.11
2022-10-16T21:45:07.556Z,81.23
2022-10-16T21:47:36.278Z,81.30
2022-10-16T21:50:05.290Z,81.18
2022-10-16T21:52:35.307Z,81.06
2022-10-16T21:55:03.914Z,81.24
2022-10-16T21:57:32.414Z,81.40
2022-10-16T22:00:03.124Z,81.07
2022-10-16T22:02:35.928Z,81.31
2022-10-16T22:05:04.796Z,81.30
2022-10-16T22:07:34.746Z,81.25
2022-10-16T22:10:03.474Z,81.46
2022-10-16T22:12:31.930Z,81.60
2022-10-16T22:15:00.506Z,81.46
2022-10-16T22:17:29.463Z,81.52
2022-10-16T22:19:58.418Z,81.51
2022-10-16T22:22:26.948Z,81.45
2022-10-16T22:24:57.038Z,81.51
2022-10-16T22:27:26.217Z,81.66
2022-10-16T22:29:55.015Z,81.65
2022-10-16T22:32:24.684Z,81.52
2022-10-16T22:34:53.334Z,81.82
2022-10-16T22:37:22.044Z,81.72
2022-10-16T22:39:50.619Z,81.71
2022-10-16T22:42:20.704Z,81.84
2022-10-16T22:44:49.267Z,81.75
2022-10-16T22:47:18.114Z,81.95
2022-10-16T22:49:46.678Z,82.05
2022-10-16T22:52:15.578Z,81.94
2022-10-16T22:54:44.199Z,81.85
2022-10-16T22:57:12.817Z,82.02
2022-10-16T22:59:42.838Z,81.82
2022-10-16T23:02:12.352Z,81.84
2022-10-16T23:04:40.878Z,82.07
2022-10-16T23:07:09.554Z,82.02
2022-10-16T23:09:38.223Z,81.93
2022-10-16T23:12:07.186Z,81.87
2022-10-16T23:14:35.745Z,82.12
2022-10-16T23:17:06.496Z,82.11
2022-10-16T23:19:34.926Z,82.19
2022-10-16T23:22:03.559Z,82.04
2022-10-16T23:24:32.577Z,82.14
2022-10-16T23:27:01.057Z,82.06
2022-10-16T23:29:29.667Z,82.06
2022-10-16T23:31:58.646Z,82.18
2022-10-16T23:34:28.758Z,82.16
2022-10-16T23:36:57.355Z,82.17
2022-10-16T23:39:25.967Z,82.22
2022-10-16T23:41:54.571Z,82.23
2022-10-16T23:44:23.119Z,82.02
2022-10-16T23:46:52.108Z,82.12
2022-10-16T23:49:20.610Z,82.28
2022-10-16T23:51:50.656Z,82.24
2022-10-16T23:54:19.724Z,82.35
2022-10-16T23:56:48.298Z,82.44
2022-10-16T23:59:16.794Z,82.48
